createdAt,value
2019-04-27T00:02:23.016Z,4.58
2019-04-27T00:04:55.995Z,3.60
2019-04-27T00:07:24.879Z,3.92
2019-04-27T00:10:03.546Z,5.45
2019-04-27T00:12:30.906Z,5.25
2019-04-27T00:15:00.107Z,4.97
2019-04-27T00:17:44.852Z,5.78
2019-04-27T00:20:15.033Z,6.15
2019-04-27T00:22:43.993Z,4.30
2019-04-27T00:25:12.997Z,5.60
2019-04-27T00:27:40.185Z,5.80
2019-04-27T00:30:07.556Z,5.97
2019-04-27T00:32:34.891Z,6.72
2019-04-27T00:35:03.743Z,5.08
2019-04-27T00:37:34.008Z,6.33
2019-04-27T00:40:06.261Z,6.93
2019-04-27T00:42:35.647Z,5.28
2019-04-27T00:45:02.962Z,7.67
2019-04-27T00:47:32.703Z,4.87
2019-04-27T00:50:00.376Z,6.03
2019-04-27T00:52:27.713Z,6.95
2019-04-27T00:54:54.993Z,6.03
2019-04-27T00:57:26.998Z,6.62
2019-04-27T01:00:14.314Z,8.20
2019-04-27T01:02:58.312Z,6.77
2019-04-27T01:05:30.237Z,6.53
2019-04-27T01:07:57.533Z,5.87
2019-04-27T01:10:24.904Z,7.90
2019-04-27T01:12:53.103Z,7.70
2019-04-27T01:15:20.477Z,7.83
2019-04-27T01:17:49.018Z,8.60
2019-04-27T01:20:16.457Z,6.80
2019-04-27T01:22:43.788Z,7.83
2019-04-27T01:25:11.015Z,9.40
2019-04-27T01:27:56.372Z,7.50
2019-04-27T01:30:25.349Z,7.80
2019-04-27T01:32:52.623Z,9.55
2019-04-27T01:35:19.977Z,10.85
2019-04-27T01:37:48.686Z,6.75
2019-04-27T01:40:16.033Z,7.50
2019-04-27T01:42:43.386Z,6.80
2019-04-27T01:45:10.682Z,7.72
2019-04-27T01:47:39.168Z,7.42
2019-04-27T01:50:06.480Z,9.93
2019-04-27T01:52:33.770Z,7.62
2019-04-27T01:55:01.020Z,10.28
2019-04-27T01:57:29.503Z,8.33
2019-04-27T01:59:56.787Z,9.20
2019-04-27T02:02:29.287Z,8.38
2019-04-27T02:05:14.591Z,8.65
2019-04-27T02:07:43.279Z,9.23
2019-04-27T02:10:10.601Z,8.55
2019-04-27T02:12:39.648Z,7.90
2019-04-27T02:15:07.067Z,9.83
2019-04-27T02:17:34.930Z,8.18
2019-04-27T02:20:02.294Z,9.23
2019-04-27T02:22:29.752Z,7.53
2019-04-27T02:24:57.093Z,7.80
2019-04-27T02:27:26.013Z,8.85
2019-04-27T02:30:11.842Z,10.03
2019-04-27T02:32:44.013Z,8.75
2019-04-27T02:35:12.273Z,7.83
2019-04-27T02:37:40.265Z,7.17
2019-04-27T02:40:12.291Z,8.53
2019-04-27T02:42:42.253Z,8.63
2019-04-27T02:45:09.762Z,8.85
2019-04-27T02:47:37.026Z,8.93
2019-04-27T02:50:05.212Z,7.90
2019-04-27T02:52:37.066Z,7.78
2019-04-27T02:55:05.295Z,8.05
2019-04-27T02:57:32.628Z,9.28
2019-04-27T03:00:00.270Z,8.20
2019-04-27T03:02:30.163Z,8.85
2019-04-27T03:05:00.296Z,8.70
2019-04-27T03:07:26.669Z,8.58
2019-04-27T03:09:53.911Z,8.50
2019-04-27T03:12:22.880Z,9.23
2019-04-27T03:14:51.866Z,7.97
2019-04-27T03:17:23.559Z,9.55
2019-04-27T03:19:59.771Z,10.82
2019-04-27T03:22:31.861Z,7.80
2019-04-27T03:25:11.686Z,11.20
2019-04-27T03:27:46.605Z,8.10
2019-04-27T03:30:15.309Z,8.90
2019-04-27T03:32:43.433Z,7.90
2019-04-27T03:35:12.706Z,8.48
2019-04-27T03:37:40.496Z,9.45
2019-04-27T03:40:10.097Z,7.42
2019-04-27T03:42:40.254Z,6.97
2019-04-27T03:45:07.572Z,9.78
2019-04-27T03:47:34.852Z,8.18
2019-04-27T03:50:02.115Z,9.45
2019-04-27T03:52:31.088Z,8.20
2019-04-27T03:55:19.512Z,7.00
2019-04-27T03:57:50.353Z,7.53
2019-04-27T04:00:25.269Z,6.08
2019-04-27T04:02:52.549Z,7.70
2019-04-27T04:05:19.964Z,8.87
2019-04-27T04:07:47.349Z,8.23
2019-04-27T04:10:14.660Z,19.57
2019-04-27T04:13:01.291Z,7.03
2019-04-27T04:15:35.625Z,8.90
2019-04-27T04:18:02.866Z,8.60
2019-04-27T04:20:30.582Z,11.57
2019-04-27T04:23:00.168Z,8.50
2019-04-27T04:25:27.061Z,7.03
2019-04-27T04:27:54.431Z,8.45
2019-04-27T04:30:21.688Z,7.40
2019-04-27T04:32:51.617Z,9.35
2019-04-27T04:35:21.211Z,8.05
2019-04-27T04:37:49.625Z,9.25
2019-04-27T04:40:19.727Z,8.68
2019-04-27T04:42:51.760Z,7.42
2019-04-27T04:45:23.587Z,9.65
2019-04-27T04:47:55.587Z,11.75
2019-04-27T04:50:22.995Z,9.73
2019-04-27T04:52:50.235Z,9.63
2019-04-27T04:55:20.140Z,10.23
2019-04-27T04:57:46.551Z,9.43
2019-04-27T05:00:13.853Z,9.50
2019-04-27T05:02:41.243Z,10.00
2019-04-27T05:05:09.405Z,9.53
2019-04-27T05:07:38.624Z,10.80
2019-04-27T05:10:06.067Z,10.28
2019-04-27T05:12:33.380Z,10.33
2019-04-27T05:15:00.648Z,10.00
2019-04-27T05:17:29.536Z,11.30
2019-04-27T05:19:57.121Z,9.33
2019-04-27T05:22:24.346Z,8.40
2019-04-27T05:24:53.366Z,9.25
2019-04-27T05:27:20.608Z,7.55
2019-04-27T05:29:48.854Z,8.53
2019-04-27T05:32:16.872Z,8.75
2019-04-27T05:34:44.148Z,9.38
2019-04-27T05:37:11.362Z,8.45
2019-04-27T05:39:39.032Z,10.05
2019-04-27T05:42:06.331Z,11.78
2019-04-27T05:44:51.971Z,11.10
2019-04-27T05:47:20.968Z,7.33
2019-04-27T05:49:48.635Z,8.93
2019-04-27T05:52:29.379Z,9.10
2019-04-27T05:54:58.841Z,9.85
2019-04-27T05:57:26.098Z,10.88
2019-04-27T05:59:54.084Z,10.38
2019-04-27T06:02:23.650Z,7.97
2019-04-27T06:04:50.987Z,11.38
2019-04-27T06:07:19.302Z,11.20
2019-04-27T06:09:46.744Z,9.93
2019-04-27T06:12:13.943Z,11.78
2019-04-27T06:14:41.197Z,10.13
2019-04-27T06:17:09.469Z,9.60
2019-04-27T06:19:36.870Z,12.28
2019-04-27T06:22:04.114Z,9.60
2019-04-27T06:24:31.347Z,8.93
2019-04-27T06:26:59.715Z,10.60
2019-04-27T06:29:29.093Z,9.98
2019-04-27T06:31:56.081Z,7.72
2019-04-27T06:34:23.448Z,8.00
2019-04-27T06:36:50.803Z,8.10
2019-04-27T06:39:18.918Z,9.40
2019-04-27T06:41:48.918Z,6.72
2019-04-27T06:44:16.046Z,7.90
2019-04-27T06:46:43.292Z,8.10
2019-04-27T06:49:11.026Z,7.33
2019-04-27T06:51:40.049Z,8.25
2019-04-27T06:54:09.145Z,9.05
2019-04-27T06:56:36.725Z,8.63
2019-04-27T06:59:04.023Z,9.60
2019-04-27T07:01:31.387Z,8.60
2019-04-27T07:04:01.594Z,8.60
2019-04-27T07:06:28.878Z,8.48
2019-04-27T07:08:56.443Z,7.80
2019-04-27T07:11:23.755Z,8.85
2019-04-27T07:13:51.050Z,9.17
2019-04-27T07:16:19.629Z,8.40
2019-04-27T07:18:47.059Z,11.50
2019-04-27T07:21:18.813Z,10.28
2019-04-27T07:23:48.823Z,8.40
2019-04-27T07:26:16.214Z,11.40
2019-04-27T07:28:43.509Z,9.20
2019-04-27T07:31:12.070Z,10.45
2019-04-27T07:33:39.622Z,10.03
2019-04-27T07:36:08.972Z,10.00
2019-04-27T07:38:36.433Z,10.18
2019-04-27T07:41:03.715Z,9.93
2019-04-27T07:43:35.701Z,9.70
2019-04-27T07:46:03.182Z,13.43
2019-04-27T07:48:30.556Z,12.43
2019-04-27T07:50:59.066Z,11.57
2019-04-27T07:53:26.702Z,13.85
2019-04-27T07:55:53.967Z,11.75
2019-04-27T07:58:22.243Z,11.40
2019-04-27T08:00:51.101Z,10.93
2019-04-27T08:03:19.583Z,11.88
2019-04-27T08:05:48.972Z,12.20
2019-04-27T08:08:16.060Z,10.55
2019-04-27T08:10:43.329Z,9.25
2019-04-27T08:13:10.729Z,11.90
2019-04-27T08:15:39.579Z,12.50
2019-04-27T08:18:08.795Z,10.25
2019-04-27T08:20:36.156Z,12.98
2019-04-27T08:23:03.440Z,12.55
2019-04-27T08:25:30.905Z,12.73
2019-04-27T08:28:00.306Z,15.80
2019-04-27T08:30:44.493Z,14.15
2019-04-27T08:33:13.559Z,14.07
2019-04-27T08:35:40.861Z,15.20
2019-04-27T08:38:09.050Z,11.12
2019-04-27T08:40:36.512Z,10.90
2019-04-27T08:43:03.884Z,11.70
2019-04-27T08:45:31.161Z,11.78
2019-04-27T08:47:59.451Z,15.72
2019-04-27T08:50:28.586Z,10.65
2019-04-27T08:52:56.100Z,11.30
2019-04-27T08:55:24.409Z,10.43
2019-04-27T08:57:51.850Z,14.00
2019-04-27T09:03:49.984Z,11.03
2019-04-27T09:06:18.915Z,11.60
2019-04-27T09:08:49.627Z,13.03
2019-04-27T09:11:21.963Z,12.88
2019-04-27T09:13:53.960Z,15.15
2019-04-27T09:16:36.491Z,14.35
2019-04-27T09:19:05.466Z,16.02
2019-04-27T09:21:50.963Z,12.43
2019-04-27T09:24:18.810Z,13.60
2019-04-27T09:26:46.254Z,16.30
2019-04-27T09:29:13.550Z,13.58
2019-04-27T09:31:40.888Z,16.90
2019-04-27T09:34:08.224Z,12.37
2019-04-27T09:36:35.516Z,11.68
2019-04-27T09:39:02.831Z,14.55
2019-04-27T09:41:30.199Z,11.70
2019-04-27T09:43:57.514Z,15.60
2019-04-27T09:46:26.002Z,13.38
2019-04-27T09:48:53.461Z,14.85
2019-04-27T09:51:20.777Z,15.32
2019-04-27T09:53:48.141Z,15.98
2019-04-27T09:56:16.471Z,19.90
2019-04-27T09:58:43.822Z,15.68
2019-04-27T10:01:11.133Z,14.05
2019-04-27T10:03:38.450Z,13.60
2019-04-27T10:06:06.221Z,13.28
2019-04-27T10:08:33.488Z,12.43
2019-04-27T10:11:00.708Z,14.03
2019-04-27T10:13:28.112Z,13.25
2019-04-27T10:15:55.383Z,12.78
2019-04-27T10:18:22.662Z,14.03
2019-04-27T10:20:59.004Z,15.30
2019-04-27T10:23:23.476Z,15.10
2019-04-27T10:25:50.702Z,16.07
2019-04-27T10:28:18.020Z,16.30
2019-04-27T10:30:45.787Z,13.40
2019-04-27T10:33:13.242Z,11.90
2019-04-27T10:35:40.684Z,11.95
2019-04-27T10:38:07.994Z,12.30
2019-04-27T10:40:35.418Z,11.03
2019-04-27T10:43:02.928Z,10.88
2019-04-27T10:45:30.264Z,12.85
2019-04-27T10:47:57.505Z,13.90
2019-04-27T10:50:26.555Z,15.05
2019-04-27T10:52:54.250Z,16.48
2019-04-27T10:55:21.698Z,13.60
2019-04-27T10:57:49.057Z,12.30
2019-04-27T11:00:18.026Z,12.30
2019-04-27T11:02:45.349Z,14.58
2019-04-27T11:05:14.433Z,16.50
2019-04-27T11:07:41.773Z,16.75
2019-04-27T11:10:09.067Z,13.55
2019-04-27T11:12:36.858Z,12.40
2019-04-27T11:15:07.727Z,15.25
2019-04-27T11:17:36.904Z,15.45
2019-04-27T11:20:06.532Z,11.73
2019-04-27T11:22:33.826Z,13.80
2019-04-27T11:25:01.143Z,11.50
2019-04-27T11:27:28.613Z,12.40
2019-04-27T11:29:56.404Z,11.73
2019-04-27T11:32:23.828Z,13.45
2019-04-27T11:35:11.353Z,15.90
2019-04-27T11:37:38.652Z,14.03
2019-04-27T11:40:07.524Z,14.40
2019-04-27T11:42:34.806Z,9.98
2019-04-27T11:45:02.096Z,7.87
2019-04-27T11:47:29.351Z,8.70
2019-04-27T11:49:57.971Z,8.95
2019-04-27T11:52:25.262Z,11.30
2019-04-27T11:54:52.556Z,8.08
2019-04-27T11:57:20.062Z,8.80
2019-04-27T11:59:47.426Z,7.95
2019-04-27T12:02:15.615Z,8.87
2019-04-27T12:04:43.788Z,8.65
2019-04-27T12:07:11.115Z,9.13
2019-04-27T12:09:38.470Z,8.30
2019-04-27T12:12:13.558Z,8.50
2019-04-27T12:14:34.749Z,9.73
2019-04-27T12:17:02.165Z,9.00
2019-04-27T12:22:02.630Z,10.38
2019-04-27T12:24:30.001Z,12.35
2019-04-27T12:27:08.257Z,12.30
2019-04-27T12:29:53.291Z,10.90
2019-04-27T12:32:20.917Z,11.08
2019-04-27T12:34:48.425Z,12.07
2019-04-27T12:37:15.802Z,9.45
2019-04-27T12:39:43.453Z,9.73
2019-04-27T12:42:10.740Z,7.53
2019-04-27T12:44:42.196Z,7.15
2019-04-27T12:47:07.172Z,6.53
2019-04-27T12:49:36.151Z,5.15
2019-04-27T12:52:03.543Z,4.03
2019-04-27T12:54:34.251Z,5.28
2019-04-27T12:57:03.135Z,4.22
2019-04-27T12:59:49.399Z,4.63
2019-04-27T13:02:17.934Z,4.35
2019-04-27T13:04:46.675Z,6.83
2019-04-27T13:07:15.910Z,6.20
2019-04-27T13:09:43.443Z,4.50
2019-04-27T13:12:10.727Z,5.25
2019-04-27T13:14:38.107Z,5.43
2019-04-27T13:17:06.249Z,4.70
2019-04-27T13:19:33.632Z,6.50
2019-04-27T13:22:00.944Z,7.42
2019-04-27T13:24:28.307Z,4.90
2019-04-27T13:26:55.948Z,3.83
2019-04-27T13:29:23.446Z,6.30
2019-04-27T13:31:50.682Z,6.97
2019-04-27T13:34:17.980Z,8.68
2019-04-27T13:36:45.731Z,9.00
2019-04-27T13:39:13.187Z,7.10
2019-04-27T13:41:40.466Z,7.78
2019-04-27T13:44:07.783Z,9.73
2019-04-27T13:46:53.300Z,10.55
2019-04-27T13:49:36.347Z,7.30
2019-04-27T13:52:06.135Z,8.05
2019-04-27T13:55:56.779Z,7.80
2019-04-27T13:58:25.244Z,10.28
2019-04-27T14:00:53.399Z,8.85
2019-04-27T14:03:21.593Z,7.20
2019-04-27T14:05:49.689Z,9.33
2019-04-27T14:08:17.886Z,7.78
2019-04-27T14:10:46.146Z,10.93
2019-04-27T14:13:14.265Z,12.47
2019-04-27T14:15:42.490Z,7.53
2019-04-27T14:18:10.777Z,6.90
2019-04-27T14:20:39.031Z,9.03
2019-04-27T14:23:18.811Z,12.00
2019-04-27T14:25:47.101Z,10.48
2019-04-27T14:28:15.333Z,9.60
2019-04-27T14:30:43.548Z,10.85
2019-04-27T14:33:11.661Z,9.45
2019-04-27T14:35:41.144Z,11.70
2019-04-27T14:38:09.271Z,11.53
2019-04-27T14:40:39.103Z,11.43
2019-04-27T14:43:08.497Z,12.45
2019-04-27T14:45:38.157Z,10.03
2019-04-27T14:48:08.290Z,10.98
2019-04-27T14:50:36.594Z,8.58
2019-04-27T14:53:04.865Z,8.48
2019-04-27T14:55:33.066Z,6.37
2019-04-27T14:58:01.325Z,8.65
2019-04-27T15:00:30.714Z,6.30
2019-04-27T15:02:59.195Z,8.27
2019-04-27T15:05:27.352Z,7.75
2019-04-27T15:07:55.575Z,8.78
2019-04-27T15:10:27.025Z,8.53
2019-04-27T15:12:55.464Z,5.55
2019-04-27T15:15:23.774Z,5.22
2019-04-27T15:17:51.990Z,6.37
2019-04-27T15:20:27.271Z,7.30
2019-04-27T15:22:56.870Z,7.42
2019-04-27T15:25:24.217Z,6.53
2019-04-27T15:27:54.066Z,8.60
2019-04-27T15:30:42.412Z,8.93
2019-04-27T15:33:16.220Z,7.15
2019-04-27T15:35:45.257Z,7.42
2019-04-27T15:38:28.804Z,7.67
2019-04-27T15:41:11.806Z,7.05
2019-04-27T15:43:41.599Z,8.85
2019-04-27T15:46:09.828Z,11.88
2019-04-27T15:48:38.462Z,9.70
2019-04-27T15:51:16.251Z,9.73
2019-04-27T15:53:40.836Z,9.23
2019-04-27T15:56:08.908Z,11.80
2019-04-27T15:58:38.292Z,9.05
2019-04-27T16:01:11.612Z,10.15
2019-04-27T16:03:39.032Z,10.20
2019-04-27T16:06:11.537Z,10.03
2019-04-27T16:08:38.248Z,10.35
2019-04-27T16:11:09.945Z,9.93
2019-04-27T16:13:38.245Z,10.32
2019-04-27T16:16:08.328Z,8.70
2019-04-27T16:18:36.307Z,8.85
2019-04-27T16:21:07.184Z,12.65
2019-04-27T16:23:40.066Z,11.90
2019-04-27T16:26:04.987Z,9.30
2019-04-27T16:28:34.246Z,10.48
2019-04-27T16:31:02.474Z,9.63
2019-04-27T16:33:30.875Z,8.25
2019-04-27T16:36:07.208Z,9.70
2019-04-27T16:38:48.205Z,9.65
2019-04-27T16:41:18.046Z,10.05
2019-04-27T16:43:46.287Z,9.98
2019-04-27T16:46:14.575Z,14.07
2019-04-27T16:48:42.804Z,10.80
2019-04-27T16:51:10.986Z,10.77
2019-04-27T16:53:41.145Z,10.25
2019-04-27T16:56:14.990Z,10.78
2019-04-27T16:58:39.422Z,11.53
2019-04-27T17:01:11.636Z,9.40
2019-04-27T17:03:41.409Z,13.58
2019-04-27T17:06:11.023Z,12.03
2019-04-27T17:08:39.800Z,17.75
2019-04-27T17:11:12.964Z,13.85
2019-04-27T17:13:39.426Z,7.85
2019-04-27T17:16:24.673Z,6.40
2019-04-27T17:18:57.708Z,6.15
2019-04-27T17:21:25.896Z,6.95
2019-04-27T17:23:58.502Z,8.58
2019-04-27T17:26:24.291Z,6.35
2019-04-27T17:29:03.367Z,9.15
2019-04-27T17:31:33.255Z,6.37
2019-04-27T17:34:03.029Z,7.00
2019-04-27T17:36:31.257Z,7.12
2019-04-27T17:38:59.449Z,7.25
2019-04-27T17:41:28.349Z,8.23
2019-04-27T17:43:56.692Z,9.18
2019-04-27T17:46:24.978Z,7.12
2019-04-27T17:48:53.165Z,7.53
2019-04-27T17:51:21.305Z,11.27
2019-04-27T17:53:49.974Z,7.12
2019-04-27T17:56:18.609Z,8.93
2019-04-27T17:58:48.616Z,8.93
2019-04-27T18:01:20.966Z,8.85
2019-04-27T18:03:46.403Z,8.60
2019-04-27T18:06:14.694Z,7.70
2019-04-27T18:08:48.633Z,8.95
2019-04-27T18:11:21.634Z,9.65
2019-04-27T18:13:50.143Z,9.20
2019-04-27T18:16:19.096Z,9.18
2019-04-27T18:19:00.077Z,8.65
2019-04-27T18:21:28.177Z,9.53
2019-04-27T18:24:01.617Z,9.75
2019-04-27T18:26:46.179Z,7.42
2019-04-27T18:29:04.274Z,7.70
2019-04-27T18:31:32.522Z,7.90
2019-04-27T18:34:00.777Z,8.28
2019-04-27T18:36:29.500Z,8.30
2019-04-27T18:38:58.713Z,6.60
2019-04-27T18:41:28.678Z,5.53
2019-04-27T18:43:58.680Z,7.87
2019-04-27T18:46:28.217Z,6.28
2019-04-27T18:48:58.500Z,7.22
2019-04-27T18:51:38.393Z,6.08
2019-04-27T18:54:08.151Z,7.62
2019-04-27T18:56:38.446Z,28.85
2019-04-27T18:59:08.323Z,33.07
2019-04-27T19:01:36.346Z,9.30
2019-04-27T19:04:04.589Z,9.18
2019-04-27T19:06:33.007Z,7.25
2019-04-27T19:09:04.528Z,13.15
2019-04-27T19:11:33.491Z,8.08
2019-04-27T19:14:01.765Z,9.00
2019-04-27T19:16:30.065Z,5.80
2019-04-27T19:18:59.312Z,6.67
2019-04-27T19:21:28.785Z,7.60
2019-04-27T19:23:58.436Z,7.12
2019-04-27T19:26:44.989Z,6.40
2019-04-27T19:29:14.818Z,6.03
2019-04-27T19:31:44.732Z,5.33
2019-04-27T19:34:12.978Z,5.72
2019-04-27T19:36:41.288Z,6.55
2019-04-27T19:39:13.924Z,9.38
2019-04-27T19:41:42.618Z,7.28
2019-04-27T19:44:10.761Z,5.53
2019-04-27T19:46:40.297Z,4.87
2019-04-27T19:49:08.806Z,6.62
2019-04-27T19:51:38.813Z,4.58
2019-04-27T19:54:08.681Z,5.10
2019-04-27T19:56:38.397Z,6.47
2019-04-27T19:59:18.743Z,6.15
2019-04-27T20:01:49.041Z,5.28
2019-04-27T20:04:28.080Z,6.17
2019-04-27T20:06:56.252Z,6.15
2019-04-27T20:09:32.064Z,7.22
2019-04-27T20:12:00.786Z,8.10
2019-04-27T20:14:31.087Z,9.53
2019-04-27T20:16:59.500Z,8.53
2019-04-27T20:19:27.627Z,8.37
2019-04-27T20:21:55.815Z,8.43
2019-04-27T20:24:24.057Z,9.48
2019-04-27T20:26:52.264Z,10.10
2019-04-27T20:29:21.743Z,8.78
2019-04-27T20:31:51.166Z,10.50
2019-04-27T20:34:21.157Z,7.85
2019-04-27T20:36:51.058Z,8.58
2019-04-27T20:39:19.172Z,7.40
2019-04-27T20:41:47.405Z,7.10
2019-04-27T20:44:15.654Z,6.85
2019-04-27T20:46:43.911Z,6.45
2019-04-27T20:49:13.820Z,6.33
2019-04-27T20:51:52.452Z,8.05
2019-04-27T20:54:21.357Z,6.42
2019-04-27T20:56:51.593Z,7.30
2019-04-27T20:59:19.881Z,7.40
2019-04-27T21:01:49.953Z,8.33
2019-04-27T21:04:20.974Z,6.50
2019-04-27T21:06:51.714Z,6.90
2019-04-27T21:09:21.342Z,8.23
2019-04-27T21:11:49.563Z,8.20
2019-04-27T21:14:17.827Z,7.53
2019-04-27T21:16:47.189Z,7.62
2019-04-27T21:19:15.337Z,6.80
2019-04-27T21:21:43.496Z,7.10
2019-04-27T21:24:11.590Z,6.70
2019-04-27T21:26:39.761Z,6.40
2019-04-27T21:29:11.658Z,6.17
2019-04-27T21:31:41.731Z,9.15
2019-04-27T21:34:10.148Z,6.55
2019-04-27T21:36:38.607Z,5.35
2019-04-27T21:39:08.593Z,5.17
2019-04-27T21:41:38.350Z,5.70
2019-04-27T21:44:06.813Z,4.12
2019-04-27T21:46:35.162Z,4.83
2019-04-27T21:49:03.330Z,6.27
2019-04-27T21:51:32.999Z,5.85
2019-04-27T21:54:05.934Z,4.95
2019-04-27T21:56:34.030Z,2.83
2019-04-27T21:59:02.600Z,5.12
2019-04-27T22:01:32.224Z,4.05
2019-04-27T22:04:03.405Z,4.10
2019-04-27T22:06:32.894Z,3.52
2019-04-27T22:09:01.404Z,3.25
2019-04-27T22:11:31.914Z,4.37
2019-04-27T22:14:01.305Z,2.87
2019-04-27T22:16:31.343Z,3.02
2019-04-27T22:18:59.698Z,2.27
2019-04-27T22:21:27.947Z,3.62
2019-04-27T22:24:11.179Z,1.90
2019-04-27T22:26:41.352Z,1.70
2019-04-27T22:29:09.312Z,1.47
2019-04-27T22:31:37.586Z,1.60
2019-04-27T22:34:05.752Z,2.58
2019-04-27T22:36:33.922Z,2.17
2019-04-27T22:39:03.720Z,4.30
2019-04-27T22:41:38.215Z,1.75
2019-04-27T22:44:07.998Z,2.45
2019-04-27T22:46:41.774Z,2.37
2019-04-27T22:49:10.989Z,1.87
2019-04-27T22:51:42.726Z,2.10
2019-04-27T22:54:11.750Z,2.62
2019-04-27T22:56:43.848Z,2.40
2019-04-27T22:59:22.763Z,3.72
2019-04-27T23:01:52.519Z,2.12
2019-04-27T23:04:25.436Z,3.20
2019-04-27T23:06:53.730Z,2.87
2019-04-27T23:09:21.925Z,5.05
2019-04-27T23:11:51.643Z,4.03
2019-04-27T23:14:21.176Z,3.93
2019-04-27T23:16:51.066Z,5.87
2019-04-27T23:19:20.917Z,5.67
2019-04-27T23:21:48.939Z,7.07
2019-04-27T23:24:17.372Z,6.15
2019-04-27T23:26:45.457Z,5.47
2019-04-27T23:29:15.823Z,8.13
2019-04-27T23:31:47.993Z,5.65
2019-04-27T23:34:16.240Z,6.85
2019-04-27T23:36:45.362Z,6.87
2019-04-27T23:39:13.862Z,5.62
2019-04-27T23:41:42.086Z,6.00
2019-04-27T23:44:11.971Z,6.47
2019-04-27T23:46:40.675Z,5.50
2019-04-27T23:49:08.927Z,5.67
2019-04-27T23:51:53.931Z,5.05
2019-04-27T23:54:22.097Z,5.12
2019-04-27T23:56:51.849Z,4.58
2019-04-27T23:59:25.075Z,5.50
